Time;durP1;ratioP1;P1;durP2;ratioP2;P2;SDS_P1;SDS_P2;PMS_P1;PMS_P2;Temp;Humidity;BMP_temperature;BMP_pressure;BME280_temperature;BME280_humidity;BME280_pressure;Samples;Min_cycle;Max_cycle;Signal;HPM_P1;HPM_P2
2021/10/30 00:02:10;;;;;;;14.73;11.45;;;13.00;99.90;;;;;;5079962;28;20049;-77
2021/10/30 00:04:37;;;;;;;17.90;11.85;;;12.90;99.90;;;;;;5077188;28;20079;-77
2021/10/30 00:07:04;;;;;;;15.95;11.75;;;12.90;99.90;;;;;;5077166;28;20118;-77
2021/10/30 00:09:32;;;;;;;21.10;11.95;;;12.90;99.90;;;;;;5076289;28;20112;-76
2021/10/30 00:11:59;;;;;;;16.70;11.50;;;12.80;99.90;;;;;;5077147;28;20131;-77
2021/10/30 00:14:26;;;;;;;16.40;11.05;;;12.80;99.90;;;;;;5076731;28;20052;-78
2021/10/30 00:16:53;;;;;;;18.38;11.70;;;12.70;99.90;;;;;;5076772;28;20471;-76
2021/10/30 00:19:20;;;;;;;15.30;10.88;;;12.70;99.90;;;;;;5076030;28;20135;-77
2021/10/30 00:21:52;;;;;;;14.55;11.07;;;12.60;99.90;;;;;;5076035;28;20454;-78
2021/10/30 00:24:19;;;;;;;14.32;10.77;;;12.60;99.90;;;;;;5076827;28;20048;-78
2021/10/30 00:26:48;;;;;;;14.45;10.82;;;12.60;99.90;;;;;;5076269;28;20058;-77
2021/10/30 00:29:15;;;;;;;15.27;11.20;;;12.60;99.90;;;;;;5075190;28;20052;-76
2021/10/30 00:31:42;;;;;;;16.00;11.52;;;12.50;99.90;;;;;;5076570;28;20135;-77
2021/10/30 00:34:09;;;;;;;15.88;11.00;;;12.50;99.90;;;;;;5075979;28;20084;-77
2021/10/30 00:36:36;;;;;;;14.60;11.05;;;12.50;99.90;;;;;;5075134;28;20090;-76
2021/10/30 00:39:04;;;;;;;15.18;12.38;;;12.50;99.90;;;;;;5075836;28;20044;-76
2021/10/30 00:41:31;;;;;;;16.60;11.73;;;12.50;99.90;;;;;;5076349;28;20080;-77
2021/10/30 00:44:07;;;;;;;17.85;11.63;;;12.40;99.90;;;;;;5076617;28;20127;-78
2021/10/30 00:46:34;;;;;;;21.02;12.38;;;12.50;99.90;;;;;;5075927;28;20116;-77
2021/10/30 00:49:02;;;;;;;14.48;11.10;;;12.50;99.90;;;;;;5076303;28;20052;-78
2021/10/30 00:51:31;;;;;;;13.23;10.75;;;12.50;99.90;;;;;;5076464;28;20069;-76
2021/10/30 00:53:59;;;;;;;13.70;10.90;;;12.50;99.90;;;;;;5075264;28;20059;-77
2021/10/30 00:56:28;;;;;;;15.38;10.93;;;12.40;99.90;;;;;;5074816;28;20045;-77
2021/10/30 00:58:56;;;;;;;16.08;11.00;;;12.40;99.90;;;;;;5075482;28;20419;-78
2021/10/30 01:01:25;;;;;;;15.48;11.57;;;12.40;99.90;;;;;;5076251;28;20194;-79
2021/10/30 01:03:52;;;;;;;16.17;11.70;;;12.40;99.90;;;;;;5077639;28;20129;-80
2021/10/30 01:06:20;;;;;;;15.82;11.60;;;12.50;99.90;;;;;;5077348;28;20473;-81
2021/10/30 01:08:47;;;;;;;16.52;11.20;;;12.50;99.90;;;;;;5078737;28;20114;-80
2021/10/30 01:11:16;;;;;;;15.90;10.90;;;12.40;99.90;;;;;;5078032;28;20399;-79
2021/10/30 01:13:43;;;;;;;14.63;11.82;;;12.40;99.90;;;;;;5077367;28;20055;-80
2021/10/30 01:16:11;;;;;;;16.70;10.77;;;12.40;99.90;;;;;;5075410;28;20072;-79
2021/10/30 01:18:39;;;;;;;15.30;10.63;;;12.40;99.90;;;;;;5075273;28;20135;-79
2021/10/30 01:21:07;;;;;;;13.88;11.20;;;12.50;99.90;;;;;;5075815;28;20135;-79
2021/10/30 01:23:34;;;;;;;15.80;11.00;;;12.40;99.90;;;;;;5075240;28;20056;-79
2021/10/30 01:26:03;;;;;;;19.15;11.25;;;12.40;99.90;;;;;;5074480;28;20442;-80
2021/10/30 01:28:34;;;;;;;17.73;11.10;;;12.40;99.90;;;;;;5077174;28;20113;-79
2021/10/30 01:31:04;;;;;;;16.95;11.40;;;12.40;99.90;;;;;;5075314;28;20057;-79
2021/10/30 01:33:31;;;;;;;15.10;10.40;;;12.40;99.90;;;;;;5078466;28;20063;-80
2021/10/30 01:36:05;;;;;;;13.23;10.57;;;12.40;99.90;;;;;;5076049;28;20084;-80
2021/10/30 01:38:34;;;;;;;14.15;10.35;;;12.40;99.90;;;;;;5077008;28;20083;-79
2021/10/30 01:41:01;;;;;;;14.45;11.20;;;12.50;99.90;;;;;;5076379;28;20084;-80
2021/10/30 01:43:28;;;;;;;17.98;10.60;;;12.40;99.90;;;;;;5076748;28;20048;-80
2021/10/30 01:45:55;;;;;;;16.48;11.07;;;12.40;99.90;;;;;;5076776;28;20112;-79
2021/10/30 01:48:28;;;;;;;14.35;10.57;;;12.40;99.90;;;;;;5077486;28;20105;-79
2021/10/30 01:50:55;;;;;;;14.25;9.88;;;12.40;99.90;;;;;;5075485;28;20127;-80
2021/10/30 01:53:22;;;;;;;15.63;10.93;;;12.40;99.90;;;;;;5076266;28;20056;-80
2021/10/30 01:55:50;;;;;;;15.63;11.07;;;12.30;99.90;;;;;;5075785;28;20079;-80
2021/10/30 01:58:17;;;;;;;14.38;10.75;;;12.30;99.90;;;;;;5073921;28;20102;-79
2021/10/30 02:00:45;;;;;;;14.57;10.27;;;12.20;99.90;;;;;;5073957;28;20064;-79
2021/10/30 02:03:12;;;;;;;13.85;10.35;;;12.20;99.90;;;;;;5072951;28;20048;-79
2021/10/30 02:05:39;;;;;;;13.65;10.45;;;12.10;99.90;;;;;;5072438;28;20139;-80
2021/10/30 02:08:06;;;;;;;13.00;10.32;;;12.10;99.90;;;;;;5073718;28;20397;-80
2021/10/30 02:10:33;;;;;;;17.70;10.27;;;12.10;99.90;;;;;;5056916;28;20053;-80
2021/10/30 02:13:01;;;;;;;14.00;10.45;;;12.10;99.90;;;;;;5028317;28;178618;-80
2021/10/30 02:15:28;;;;;;;14.48;10.23;;;12.00;99.90;;;;;;5034402;28;20076;-80
2021/10/30 02:17:55;;;;;;;17.70;11.18;;;12.00;99.90;;;;;;5037049;28;20065;-80
2021/10/30 02:20:22;;;;;;;12.13;9.52;;;12.00;99.90;;;;;;5035988;28;20584;-80
2021/10/30 02:22:52;;;;;;;14.30;10.38;;;12.00;99.90;;;;;;5035168;28;20049;-80
2021/10/30 02:25:21;;;;;;;11.63;9.48;;;12.00;99.90;;;;;;5034780;28;20049;-80
2021/10/30 02:27:48;;;;;;;12.65;9.30;;;12.00;99.90;;;;;;5037568;28;20049;-79
2021/10/30 02:30:16;;;;;;;13.60;9.93;;;12.00;99.90;;;;;;5036763;28;20095;-81
2021/10/30 02:32:44;;;;;;;12.70;9.23;;;12.10;99.90;;;;;;5040661;28;20135;-80
2021/10/30 02:35:11;;;;;;;15.18;9.75;;;12.10;99.90;;;;;;5038004;28;20049;-80
2021/10/30 02:37:38;;;;;;;15.07;10.23;;;12.10;99.90;;;;;;5036572;28;20062;-80
2021/10/30 02:40:07;;;;;;;12.63;9.35;;;12.10;99.90;;;;;;5035006;28;20045;-79
2021/10/30 02:42:34;;;;;;;11.20;9.18;;;12.10;99.90;;;;;;5035908;28;20123;-80
2021/10/30 02:45:01;;;;;;;11.25;8.95;;;12.10;99.90;;;;;;5035917;28;20128;-79
2021/10/30 02:47:30;;;;;;;12.75;8.65;;;12.10;99.90;;;;;;5033753;28;20088;-80
2021/10/30 02:49:57;;;;;;;14.43;9.10;;;12.10;99.90;;;;;;5032892;28;20053;-79
2021/10/30 02:52:24;;;;;;;13.93;9.27;;;12.10;99.90;;;;;;5033879;28;20152;-79
2021/10/30 02:54:51;;;;;;;12.55;8.60;;;12.10;99.90;;;;;;5033001;28;20137;-78
2021/10/30 02:57:18;;;;;;;15.10;8.70;;;12.10;99.90;;;;;;5032884;28;20542;-79
2021/10/30 02:59:45;;;;;;;11.85;8.25;;;12.10;99.90;;;;;;5031729;28;20095;-79
2021/10/30 03:02:12;;;;;;;12.55;8.75;;;12.10;99.90;;;;;;5031885;28;20049;-79
2021/10/30 03:04:40;;;;;;;10.43;8.02;;;12.20;99.90;;;;;;5031707;28;20059;-78
2021/10/30 03:07:07;;;;;;;13.00;9.38;;;12.20;99.90;;;;;;5030722;28;20085;-78
2021/10/30 03:09:34;;;;;;;10.60;8.35;;;12.20;99.90;;;;;;5030513;28;20129;-79
2021/10/30 03:12:01;;;;;;;14.10;8.88;;;12.20;99.90;;;;;;5031510;28;20145;-78
2021/10/30 03:14:27;;;;;;;12.15;9.23;;;12.20;99.90;;;;;;5031249;28;20422;-79
2021/10/30 03:16:54;;;;;;;11.82;9.13;;;12.20;99.90;;;;;;5031212;28;20509;-78
2021/10/30 03:19:21;;;;;;;15.68;8.70;;;12.20;99.90;;;;;;5031412;28;20128;-79
2021/10/30 03:21:49;;;;;;;11.82;9.18;;;12.20;99.90;;;;;;5031033;28;20052;-78
2021/10/30 03:24:17;;;;;;;12.68;8.77;;;12.20;99.90;;;;;;5031526;28;20081;-78
2021/10/30 03:26:44;;;;;;;14.32;8.85;;;12.20;99.90;;;;;;5030424;28;20525;-79
2021/10/30 03:29:11;;;;;;;11.25;8.45;;;12.30;99.90;;;;;;5029901;28;20414;-78
2021/10/30 03:31:38;;;;;;;14.30;9.48;;;12.30;99.90;;;;;;5032667;28;20132;-79
2021/10/30 03:34:07;;;;;;;13.95;9.07;;;12.20;99.90;;;;;;5033499;28;20172;-78
2021/10/30 03:36:34;;;;;;;14.07;9.45;;;12.20;99.90;;;;;;5033541;28;20111;-79
2021/10/30 03:39:06;;;;;;;13.55;9.20;;;12.20;99.90;;;;;;5031812;28;20054;-79
2021/10/30 03:41:33;;;;;;;12.90;9.18;;;12.20;99.90;;;;;;5033151;28;20076;-79
2021/10/30 03:44:00;;;;;;;13.65;10.05;;;12.10;99.90;;;;;;5032528;28;20472;-79
2021/10/30 03:46:26;;;;;;;12.77;9.80;;;12.10;99.90;;;;;;5032733;28;20120;-79
2021/10/30 03:48:53;;;;;;;13.90;10.23;;;12.00;99.90;;;;;;5032771;28;20059;-78
2021/10/30 03:51:26;;;;;;;13.05;10.15;;;11.90;99.90;;;;;;5031513;28;20136;-79
2021/10/30 03:53:53;;;;;;;;;;;11.90;99.90;;;;;;5033280;28;20714;-78
2021/10/30 03:56:25;;;;;;;11.93;10.07;;;11.80;99.90;;;;;;5032773;28;19921;-79
2021/10/30 03:58:52;;;;;;;13.60;10.10;;;11.80;99.90;;;;;;5033920;28;20057;-78
2021/10/30 04:01:19;;;;;;;12.63;10.00;;;11.70;99.90;;;;;;5032511;28;20072;-79
2021/10/30 04:03:46;;;;;;;13.50;9.95;;;11.70;99.90;;;;;;5032846;28;20484;-79
2021/10/30 04:06:16;;;;;;;15.07;9.98;;;11.70;99.90;;;;;;5033219;28;20088;-79
2021/10/30 04:08:44;;;;;;;14.27;9.57;;;11.80;99.90;;;;;;5030795;28;20081;-79
2021/10/30 04:11:12;;;;;;;15.13;9.48;;;11.70;99.90;;;;;;5032293;28;20099;-78
2021/10/30 04:13:40;;;;;;;11.48;9.43;;;11.70;99.90;;;;;;5031602;28;20446;-77
2021/10/30 04:16:07;;;;;;;16.77;10.05;;;11.70;99.90;;;;;;5034604;28;20045;-78
2021/10/30 04:18:34;;;;;;;13.18;9.25;;;11.70;99.90;;;;;;5034730;28;20429;-77
2021/10/30 04:21:01;;;;;;;12.48;9.52;;;11.80;99.90;;;;;;5036515;28;20053;-77
2021/10/30 04:23:28;;;;;;;14.25;10.52;;;11.80;99.90;;;;;;5035152;28;20564;-77
2021/10/30 04:25:55;;;;;;;13.38;9.48;;;11.80;99.90;;;;;;5034441;28;20580;-77
2021/10/30 04:28:22;;;;;;;13.48;9.57;;;11.80;99.90;;;;;;5035188;28;20425;-77
2021/10/30 04:30:50;;;;;;;11.85;9.07;;;11.80;99.90;;;;;;5035470;28;20076;-77
2021/10/30 04:33:18;;;;;;;12.60;8.85;;;11.90;99.90;;;;;;5034425;28;20140;-78
2021/10/30 04:35:47;;;;;;;12.45;9.30;;;11.90;99.90;;;;;;5034591;28;20076;-78
2021/10/30 04:38:14;;;;;;;11.48;9.20;;;11.90;99.90;;;;;;5035796;28;20128;-78
2021/10/30 04:40:41;;;;;;;11.70;8.82;;;11.90;99.90;;;;;;5035487;28;20077;-78
2021/10/30 04:43:09;;;;;;;11.57;9.02;;;12.00;99.90;;;;;;5034728;28;20542;-78
2021/10/30 04:45:40;;;;;;;13.57;8.85;;;12.00;99.90;;;;;;5034968;28;20433;-77
2021/10/30 04:48:09;;;;;;;11.32;8.88;;;12.00;99.90;;;;;;5034896;28;20413;-78
2021/10/30 04:50:36;;;;;;;11.70;8.95;;;12.00;99.90;;;;;;5034730;28;20127;-78
2021/10/30 04:53:02;;;;;;;10.90;8.30;;;12.00;99.90;;;;;;5034685;28;20466;-78
2021/10/30 04:55:29;;;;;;;13.45;9.05;;;12.00;99.90;;;;;;5033506;28;20072;-78
2021/10/30 04:57:56;;;;;;;12.98;8.63;;;12.10;99.90;;;;;;5034112;28;20076;-77
2021/10/30 05:00:23;;;;;;;10.15;8.90;;;12.10;99.90;;;;;;5034365;28;20128;-79
2021/10/30 05:02:52;;;;;;;12.20;9.18;;;12.10;99.90;;;;;;5034715;28;20085;-78
2021/10/30 05:05:20;;;;;;;12.27;8.52;;;12.10;99.90;;;;;;5034468;28;20057;-78
2021/10/30 05:07:47;;;;;;;10.60;8.07;;;12.10;99.90;;;;;;5036261;28;20549;-78
2021/10/30 05:10:14;;;;;;;10.65;7.97;;;12.20;99.90;;;;;;5035798;28;20351;-79
2021/10/30 05:12:41;;;;;;;11.20;8.32;;;12.20;99.90;;;;;;5035621;28;20536;-79
2021/10/30 05:15:08;;;;;;;11.75;9.40;;;12.20;99.90;;;;;;5035368;28;20403;-80
2021/10/30 05:17:36;;;;;;;13.77;8.82;;;12.20;99.90;;;;;;5034641;28;20049;-79
2021/10/30 05:20:03;;;;;;;11.43;8.18;;;12.20;99.90;;;;;;5034678;28;20627;-80
2021/10/30 05:22:31;;;;;;;11.27;8.50;;;12.20;99.90;;;;;;5035359;28;20203;-80
2021/10/30 05:24:58;;;;;;;10.60;8.27;;;12.30;99.90;;;;;;5035507;28;20077;-81
2021/10/30 05:27:25;;;;;;;12.13;8.10;;;12.30;99.90;;;;;;5035558;28;20588;-80
2021/10/30 05:29:52;;;;;;;22.50;16.70;;;12.30;99.90;;;;;;5035472;28;20053;-80
2021/10/30 05:32:19;;;;;;;11.55;8.13;;;12.40;99.90;;;;;;5036701;28;20053;-80
2021/10/30 05:34:46;;;;;;;13.18;8.05;;;12.40;99.90;;;;;;5038587;28;20136;-79
2021/10/30 05:37:13;;;;;;;10.45;7.90;;;12.50;99.90;;;;;;5036370;28;20091;-80
2021/10/30 05:39:41;;;;;;;13.38;8.15;;;12.50;99.90;;;;;;5036103;28;20056;-80
2021/10/30 05:42:10;;;;;;;8.90;7.55;;;12.50;99.90;;;;;;5036706;28;20156;-80
2021/10/30 05:44:38;;;;;;;11.35;8.32;;;12.50;99.90;;;;;;5033324;28;20045;-80
2021/10/30 05:47:07;;;;;;;12.55;7.95;;;12.50;99.90;;;;;;5034402;28;20073;-80
2021/10/30 05:49:36;;;;;;;11.27;7.78;;;12.50;99.90;;;;;;5034253;28;20390;-80
2021/10/30 05:52:03;;;;;;;11.00;8.15;;;12.50;99.90;;;;;;5036311;28;20080;-78
2021/10/30 05:54:30;;;;;;;10.90;8.35;;;12.40;99.90;;;;;;5033680;28;20050;-78
2021/10/30 05:56:59;;;;;;;10.75;8.18;;;12.50;99.90;;;;;;5033003;28;20140;-78
2021/10/30 05:59:26;;;;;;;11.15;8.07;;;12.50;99.90;;;;;;5032038;28;20081;-79
2021/10/30 06:01:53;;;;;;;13.80;8.57;;;12.60;99.90;;;;;;5032264;28;20140;-80
2021/10/30 06:04:20;;;;;;;12.45;9.18;;;12.60;99.90;;;;;;5034653;28;20141;-79
2021/10/30 06:06:47;;;;;;;11.95;8.98;;;12.70;99.90;;;;;;5034727;28;20466;-79
2021/10/30 06:09:14;;;;;;;19.58;10.93;;;12.60;99.90;;;;;;5034790;28;20532;-78
2021/10/30 06:11:41;;;;;;;11.88;9.02;;;12.60;99.90;;;;;;5033186;28;20050;-80
2021/10/30 06:14:10;;;;;;;12.38;8.07;;;12.60;99.90;;;;;;5033808;28;20049;-78
2021/10/30 06:16:38;;;;;;;11.90;8.18;;;12.60;99.90;;;;;;5033814;28;20060;-79
2021/10/30 06:19:05;;;;;;;12.40;8.15;;;12.70;99.90;;;;;;5033920;28;20402;-77
2021/10/30 06:21:32;;;;;;;11.27;8.10;;;12.70;99.90;;;;;;5032618;28;20052;-78
2021/10/30 06:23:59;;;;;;;10.75;7.95;;;12.70;99.90;;;;;;5033542;28;20109;-80
2021/10/30 06:26:27;;;;;;;9.95;7.70;;;12.70;99.90;;;;;;5034531;28;20133;-80
2021/10/30 06:28:55;;;;;;;11.23;8.07;;;12.70;99.90;;;;;;5035707;28;20108;-80
2021/10/30 06:31:24;;;;;;;9.57;7.32;;;12.80;99.90;;;;;;5035246;28;20049;-79
2021/10/30 06:33:55;;;;;;;10.43;7.78;;;12.80;99.90;;;;;;5035125;28;20137;-81
2021/10/30 06:36:22;;;;;;;9.00;7.13;;;12.80;99.90;;;;;;5033596;28;20068;-79
2021/10/30 06:38:50;;;;;;;9.60;7.53;;;12.90;99.90;;;;;;5034365;28;20113;-80
2021/10/30 06:41:17;;;;;;;9.38;7.13;;;12.90;99.90;;;;;;5035009;28;20050;-78
2021/10/30 06:43:44;;;;;;;8.63;7.18;;;12.90;99.90;;;;;;5034219;28;20053;-79
2021/10/30 06:46:11;;;;;;;9.30;7.50;;;12.90;99.90;;;;;;5034352;28;20110;-80
2021/10/30 06:48:39;;;;;;;12.73;7.63;;;12.90;99.90;;;;;;5034298;28;20169;-80
2021/10/30 06:51:09;;;;;;;11.23;7.75;;;13.00;99.90;;;;;;5034244;28;20046;-80
2021/10/30 06:53:36;;;;;;;9.63;7.25;;;12.90;99.90;;;;;;5034106;28;20359;-80
2021/10/30 06:56:03;;;;;;;11.77;7.75;;;12.90;99.90;;;;;;5034172;28;20523;-80
2021/10/30 06:58:35;;;;;;;11.15;7.53;;;12.90;99.90;;;;;;5034024;28;20073;-80
2021/10/30 07:01:01;;;;;;;10.43;8.43;;;12.70;99.90;;;;;;5036141;28;20046;-80
2021/10/30 07:03:28;;;;;;;12.15;8.65;;;12.70;99.90;;;;;;5034488;28;20050;-79
2021/10/30 07:05:57;;;;;;;12.15;8.05;;;12.70;99.90;;;;;;5034993;28;20139;-80
2021/10/30 07:08:23;;;;;;;9.90;7.60;;;12.70;99.90;;;;;;5036506;28;20091;-80
2021/10/30 07:10:50;;;;;;;12.60;8.07;;;12.70;99.90;;;;;;5035169;28;20060;-80
2021/10/30 07:13:17;;;;;;;11.32;8.13;;;12.70;99.90;;;;;;5036640;28;20109;-80
2021/10/30 07:15:44;;;;;;;12.27;8.40;;;12.70;99.90;;;;;;5034296;28;20104;-80
2021/10/30 07:18:11;;;;;;;12.18;7.82;;;12.70;99.90;;;;;;5035162;28;20056;-79
2021/10/30 07:20:38;;;;;;;14.95;8.35;;;12.70;99.90;;;;;;5034044;28;20060;-79
2021/10/30 07:23:06;;;;;;;14.57;8.18;;;12.70;99.90;;;;;;5037123;28;20137;-81
2021/10/30 07:25:34;;;;;;;11.85;8.07;;;12.70;99.90;;;;;;5037843;28;20140;-80
2021/10/30 07:28:01;;;;;;;10.95;8.50;;;12.70;99.90;;;;;;5039002;28;20076;-81
2021/10/30 07:30:28;;;;;;;10.85;7.72;;;12.70;99.90;;;;;;5038935;28;20085;-80
2021/10/30 07:32:55;;;;;;;12.77;8.88;;;12.70;99.90;;;;;;5038262;28;20085;-80
2021/10/30 07:35:24;;;;;;;12.43;8.52;;;12.70;99.90;;;;;;5036579;28;20084;-80
2021/10/30 07:37:57;;;;;;;12.25;9.20;;;12.70;99.90;;;;;;5037595;28;20053;-80
2021/10/30 07:40:26;;;;;;;10.77;8.93;;;12.70;99.90;;;;;;5037338;28;20057;-80
2021/10/30 07:42:53;;;;;;;12.30;8.55;;;12.70;99.90;;;;;;5037244;28;20072;-81
2021/10/30 07:45:21;;;;;;;11.05;8.98;;;12.80;99.90;;;;;;5037042;28;20052;-81
2021/10/30 07:47:48;;;;;;;10.15;8.23;;;12.80;99.90;;;;;;5034021;28;20045;-77
2021/10/30 07:50:15;;;;;;;10.52;8.75;;;12.70;99.90;;;;;;5034322;28;20240;-77
2021/10/30 07:52:42;;;;;;;13.70;8.40;;;12.80;99.90;;;;;;5035631;28;20137;-77
2021/10/30 07:55:10;;;;;;;12.77;9.05;;;12.70;99.90;;;;;;5035752;28;20537;-77
2021/10/30 07:57:38;;;;;;;12.20;9.07;;;12.80;99.90;;;;;;5036336;28;20148;-78
2021/10/30 08:00:06;;;;;;;10.85;8.82;;;12.80;99.90;;;;;;5037707;28;20059;-77
2021/10/30 08:02:33;;;;;;;11.65;8.98;;;12.80;99.90;;;;;;5040362;28;20050;-78
2021/10/30 08:05:01;;;;;;;13.60;9.10;;;12.80;99.90;;;;;;5040965;28;20075;-77
2021/10/30 08:07:28;;;;;;;12.07;9.45;;;12.70;99.90;;;;;;5039200;28;20072;-79
2021/10/30 08:09:54;;;;;;;13.68;9.90;;;12.80;99.90;;;;;;5035457;28;20478;-76
2021/10/30 08:12:21;;;;;;;10.57;8.65;;;12.80;99.90;;;;;;5036327;28;20118;-78
2021/10/30 08:14:50;;;;;;;10.70;9.38;;;12.80;99.90;;;;;;5036821;28;20501;-78
2021/10/30 08:17:17;;;;;;;10.45;8.80;;;12.80;99.90;;;;;;5037336;28;20523;-77
2021/10/30 08:19:43;;;;;;;12.00;9.13;;;12.80;99.90;;;;;;5036712;28;20140;-78
2021/10/30 08:22:10;;;;;;;11.23;9.02;;;12.80;99.90;;;;;;5036505;28;20128;-79
2021/10/30 08:24:37;;;;;;;12.35;10.27;;;12.90;99.90;;;;;;5035789;28;20084;-76
2021/10/30 08:27:05;;;;;;;10.90;9.75;;;12.90;99.90;;;;;;5035913;28;20052;-78
2021/10/30 08:29:32;;;;;;;13.48;9.48;;;12.80;99.90;;;;;;5035769;28;20521;-78
2021/10/30 08:32:00;;;;;;;11.32;8.95;;;12.80;99.90;;;;;;5035808;28;20461;-78
2021/10/30 08:34:27;;;;;;;12.65;9.32;;;12.80;99.90;;;;;;5035591;28;20494;-79
2021/10/30 08:36:54;;;;;;;13.05;9.20;;;12.80;99.90;;;;;;5035734;28;20140;-78
2021/10/30 08:39:21;;;;;;;11.65;8.85;;;12.80;99.90;;;;;;5035768;28;20696;-78
2021/10/30 08:41:48;;;;;;;11.30;8.50;;;12.90;99.90;;;;;;5035624;28;20124;-78
2021/10/30 08:44:16;;;;;;;8.98;7.60;;;13.00;99.90;;;;;;5035642;28;20371;-77
2021/10/30 08:46:43;;;;;;;8.65;7.13;;;13.00;99.90;;;;;;5035023;28;20478;-78
2021/10/30 08:49:12;;;;;;;10.88;7.75;;;13.10;99.90;;;;;;5035572;28;20157;-79
2021/10/30 08:51:41;;;;;;;9.95;7.53;;;13.10;99.90;;;;;;5034838;28;20394;-79
2021/10/30 08:54:08;;;;;;;9.65;7.28;;;13.20;99.90;;;;;;5035124;28;20439;-79
2021/10/30 08:56:37;;;;;;;10.48;7.38;;;13.30;99.90;;;;;;5035299;28;20052;-79
2021/10/30 08:59:04;;;;;;;9.43;6.63;;;13.30;99.90;;;;;;5035164;28;20053;-78
2021/10/30 09:01:42;;;;;;;8.88;6.47;;;13.40;99.90;;;;;;5035247;28;20151;-79
2021/10/30 09:04:14;;;;;;;7.50;6.10;;;13.50;99.90;;;;;;5038072;28;20117;-80
2021/10/30 09:06:57;;;;;;;9.32;6.28;;;13.60;99.90;;;;;;5037047;28;20049;-80
2021/10/30 09:09:24;;;;;;;8.32;6.53;;;13.70;99.90;;;;;;5037681;28;20075;-80
2021/10/30 09:11:55;;;;;;;9.10;6.25;;;13.80;99.90;;;;;;5042138;28;20140;-81
2021/10/30 09:14:22;;;;;;;6.95;5.75;;;13.80;99.90;;;;;;5046167;28;20063;-82
2021/10/30 09:17:11;;;;;;;7.90;5.45;;;13.90;99.90;;;;;;5036357;28;20069;-79
2021/10/30 09:19:41;;;;;;;7.55;5.28;;;14.00;99.90;;;;;;5051942;23;20049;-80
2021/10/30 09:22:08;;;;;;;11.45;8.73;;;14.00;99.90;;;;;;5050678;28;20045;-79
2021/10/30 09:24:54;;;;;;;7.53;5.10;;;14.10;99.90;;;;;;5058431;28;20061;-79
2021/10/30 09:27:39;;;;;;;8.02;4.90;;;14.10;99.90;;;;;;5057523;28;20085;-79
2021/10/30 09:30:07;;;;;;;8.25;4.80;;;14.20;99.90;;;;;;5055309;28;20135;-77
2021/10/30 09:32:33;;;;;;;6.57;4.80;;;14.20;99.90;;;;;;5054358;28;20746;-77
2021/10/30 09:35:02;;;;;;;7.32;5.25;;;14.20;99.90;;;;;;5054348;28;20059;-77
2021/10/30 09:37:33;;;;;;;10.63;6.70;;;14.20;99.90;;;;;;5055006;28;20110;-78
2021/10/30 09:40:17;;;;;;;10.32;7.30;;;14.00;99.90;;;;;;5055026;28;20053;-78
2021/10/30 09:42:44;;;;;;;10.98;9.00;;;13.90;99.90;;;;;;5059313;28;20551;-79
2021/10/30 09:45:14;;;;;;;11.10;8.73;;;13.70;99.90;;;;;;5058545;28;20128;-78
2021/10/30 09:47:57;;;;;;;12.77;9.25;;;13.60;99.90;;;;;;5044491;28;20115;-79
2021/10/30 09:50:28;;;;;;;12.40;8.50;;;13.50;99.90;;;;;;5039238;28;20049;-79
2021/10/30 09:52:55;;;;;;;12.15;8.90;;;13.40;99.90;;;;;;5037512;28;20072;-79
2021/10/30 09:55:23;;;;;;;12.77;9.25;;;13.30;99.90;;;;;;5036799;28;20080;-78
2021/10/30 09:57:59;;;;;;;10.55;8.57;;;13.30;99.90;;;;;;5037485;28;20424;-79
2021/10/30 10:00:26;;;;;;;13.52;9.18;;;13.30;99.90;;;;;;5038135;28;20081;-80
2021/10/30 10:02:57;;;;;;;11.98;8.90;;;13.30;99.90;;;;;;5036958;28;20081;-80
2021/10/30 10:05:27;;;;;;;13.98;9.90;;;13.30;99.90;;;;;;5037382;28;20129;-81
2021/10/30 10:07:55;;;;;;;10.88;8.55;;;13.30;99.90;;;;;;5037648;28;20045;-79
2021/10/30 10:10:23;;;;;;;12.15;9.07;;;13.20;99.90;;;;;;5038022;28;20051;-81
2021/10/30 10:12:54;;;;;;;13.23;10.25;;;13.30;99.90;;;;;;5037738;28;20132;-81
2021/10/30 10:15:22;;;;;;;13.65;9.88;;;13.30;99.90;;;;;;5036785;28;20419;-80
2021/10/30 10:17:51;;;;;;;12.85;9.73;;;13.30;99.90;;;;;;5038382;28;20057;-80
2021/10/30 10:20:18;;;;;;;12.38;9.27;;;13.30;99.90;;;;;;5037892;28;20053;-80
2021/10/30 10:22:47;;;;;;;12.23;9.48;;;13.40;99.90;;;;;;5038707;28;20363;-79
2021/10/30 10:25:27;;;;;;;11.27;8.95;;;13.30;99.90;;;;;;5036977;28;20129;-79
2021/10/30 10:27:55;;;;;;;14.70;9.60;;;13.30;99.90;;;;;;5038100;28;20116;-80
2021/10/30 10:30:22;;;;;;;11.70;9.63;;;13.30;99.90;;;;;;5037287;28;20247;-79
2021/10/30 10:32:49;;;;;;;11.45;9.38;;;13.20;99.90;;;;;;5037086;28;20520;-79
2021/10/30 10:35:18;;;;;;;11.50;9.15;;;13.20;99.90;;;;;;5036748;28;20053;-79
2021/10/30 10:37:50;;;;;;;13.75;9.45;;;13.20;99.90;;;;;;5039677;28;20056;-79
2021/10/30 10:40:31;;;;;;;12.52;9.15;;;13.20;99.90;;;;;;5036062;28;20132;-79
2021/10/30 10:42:59;;;;;;;14.75;9.50;;;13.30;99.90;;;;;;5036058;28;20124;-80
2021/10/30 10:45:49;;;;;;;12.65;9.32;;;13.20;99.90;;;;;;5036029;28;20395;-80
2021/10/30 10:48:22;;;;;;;14.63;9.65;;;13.20;99.90;;;;;;5035827;28;20057;-80
2021/10/30 10:50:53;;;;;;;11.65;10.00;;;13.20;99.90;;;;;;5037698;28;20064;-80
2021/10/30 10:53:26;;;;;;;12.05;9.43;;;13.20;99.90;;;;;;5037333;28;20056;-79
2021/10/30 10:56:06;;;;;;;;;;;13.20;99.90;;;;;;5034034;28;20075;-77
2021/10/30 10:59:03;;;;;;;11.85;9.52;;;13.20;99.90;;;;;;5042638;28;19988;-76
2021/10/30 11:01:29;;;;;;;12.73;9.77;;;13.20;99.90;;;;;;5048356;28;20136;-76
2021/10/30 11:04:10;;;;;;;12.55;10.13;;;13.20;99.90;;;;;;5044797;28;20084;-79
2021/10/30 11:06:42;;;;;;;13.45;9.70;;;13.20;99.90;;;;;;5045029;28;20085;-79
2021/10/30 11:09:15;;;;;;;13.65;10.07;;;13.20;99.90;;;;;;5049948;28;20079;-78
2021/10/30 11:11:42;;;;;;;14.07;10.05;;;13.20;99.90;;;;;;5041479;28;20111;-76
2021/10/30 11:14:12;;;;;;;14.02;10.75;;;13.20;99.90;;;;;;5045779;28;20056;-76
2021/10/30 11:16:41;;;;;;;17.45;10.35;;;13.20;99.90;;;;;;5054973;28;20084;-76
2021/10/30 11:19:22;;;;;;;13.82;10.30;;;13.20;99.90;;;;;;5041300;28;20118;-78
2021/10/30 11:21:52;;;;;;;14.32;10.88;;;13.20;99.90;;;;;;5042889;28;20053;-77
2021/10/30 11:24:27;;;;;;;15.45;10.32;;;13.20;99.90;;;;;;5047062;28;20049;-77
2021/10/30 11:27:01;;;;;;;11.90;10.40;;;13.20;99.90;;;;;;5046598;28;20049;-78
2021/10/30 11:29:28;;;;;;;13.20;10.43;;;13.20;99.90;;;;;;5044697;28;20123;-76
2021/10/30 11:31:58;;;;;;;15.00;10.45;;;13.20;99.90;;;;;;5038206;28;20144;-77
2021/10/30 11:34:26;;;;;;;15.98;10.77;;;13.30;99.90;;;;;;5051576;28;20400;-78
2021/10/30 11:36:56;;;;;;;14.00;9.98;;;13.30;99.90;;;;;;5054456;28;20056;-80
2021/10/30 11:39:26;;;;;;;15.00;10.50;;;13.40;99.90;;;;;;5057553;28;20051;-77
2021/10/30 11:41:53;;;;;;;17.10;10.57;;;13.40;99.90;;;;;;5051939;28;20073;-79
2021/10/30 11:44:22;;;;;;;14.20;10.02;;;13.40;99.90;;;;;;5037912;28;20545;-79
2021/10/30 11:46:53;;;;;;;11.60;9.38;;;13.50;99.90;;;;;;5038830;28;20140;-78
2021/10/30 11:49:25;;;;;;;14.77;10.05;;;13.60;99.90;;;;;;5039206;28;20057;-79
2021/10/30 11:51:58;;;;;;;13.15;9.48;;;13.60;99.90;;;;;;5041588;28;20126;-78
2021/10/30 11:54:26;;;;;;;13.48;8.93;;;13.60;99.90;;;;;;5040226;28;20064;-78
2021/10/30 11:56:53;;;;;;;13.63;9.57;;;13.60;99.90;;;;;;5037450;28;20076;-80
2021/10/30 11:59:20;;;;;;;10.98;8.30;;;13.70;99.90;;;;;;5038035;28;20140;-79
2021/10/30 12:01:49;;;;;;;13.43;8.65;;;13.70;99.90;;;;;;5038478;28;20156;-79
2021/10/30 12:04:18;;;;;;;10.15;7.93;;;13.80;99.90;;;;;;5038323;28;20050;-80
2021/10/30 12:06:48;;;;;;;9.98;7.57;;;13.70;99.90;;;;;;5040886;28;20140;-80
2021/10/30 12:09:16;;;;;;;10.35;8.27;;;13.80;99.90;;;;;;5042181;28;20072;-78
2021/10/30 12:11:46;;;;;;;9.27;7.60;;;13.80;99.90;;;;;;5036308;28;20092;-78
2021/10/30 12:14:22;;;;;;;11.80;8.68;;;13.80;99.90;;;;;;5023931;28;20174;-79
2021/10/30 12:16:49;;;;;;;12.43;7.93;;;13.80;99.90;;;;;;5022794;28;20088;-79
2021/10/30 12:19:16;;;;;;;11.40;7.57;;;13.80;99.90;;;;;;5029439;28;20553;-82
2021/10/30 12:21:44;;;;;;;9.25;7.03;;;13.90;99.90;;;;;;5031393;28;20065;-78
2021/10/30 12:24:14;;;;;;;8.02;6.70;;;13.90;99.90;;;;;;5032187;28;20049;-78
2021/10/30 12:27:04;;;;;;;8.15;6.38;;;14.00;99.90;;;;;;5030799;28;20046;-80
2021/10/30 12:29:33;;;;;;;8.27;6.35;;;14.10;99.90;;;;;;5026216;28;20304;-78
2021/10/30 12:32:04;;;;;;;7.28;5.88;;;14.20;99.90;;;;;;5047873;28;20076;-80
2021/10/30 12:34:33;;;;;;;8.00;5.40;;;14.20;99.90;;;;;;5051613;28;20061;-78
2021/10/30 12:37:04;;;;;;;9.48;5.80;;;14.30;99.90;;;;;;5061001;28;20135;-79
2021/10/30 12:39:32;;;;;;;8.65;6.07;;;14.40;99.90;;;;;;5050865;28;20084;-80
2021/10/30 12:42:03;;;;;;;8.20;6.28;;;14.40;99.90;;;;;;5037543;28;20068;-77
2021/10/30 12:44:33;;;;;;;8.25;6.10;;;14.50;99.90;;;;;;5039720;28;20084;-78